sensor_id;sensor_type;location;lat;lon;timestamp;P1;durP1;ratioP1;P2;durP2;ratioP2
30181;SDS011;16990;49.056;9.240;2022-08-25T00:02:31;6.40;;;3.33;;
30181;SDS011;16990;49.056;9.240;2022-08-25T00:05:18;4.70;;;3.35;;
30181;SDS011;16990;49.056;9.240;2022-08-25T00:08:05;5.35;;;3.50;;
30181;SDS011;16990;49.056;9.240;2022-08-25T00:10:54;5.45;;;3.63;;
30181;SDS011;16990;49.056;9.240;2022-08-25T00:13:41;5.90;;;3.13;;
30181;SDS011;16990;49.056;9.240;2022-08-25T00:16:30;5.18;;;3.60;;
30181;SDS011;16990;49.056;9.240;2022-08-25T00:19:20;9.85;;;3.53;;
30181;SDS011;16990;49.056;9.240;2022-08-25T00:22:09;3.63;;;2.95;;
30181;SDS011;16990;49.056;9.240;2022-08-25T00:24:56;11.00;;;3.50;;
30181;SDS011;16990;49.056;9.240;2022-08-25T00:27:44;4.60;;;3.40;;
30181;SDS011;16990;49.056;9.240;2022-08-25T00:30:32;4.82;;;3.15;;
30181;SDS011;16990;49.056;9.240;2022-08-25T00:33:18;5.22;;;3.67;;
30181;SDS011;16990;49.056;9.240;2022-08-25T00:36:05;6.68;;;3.83;;
30181;SDS011;16990;49.056;9.240;2022-08-25T00:38:52;4.50;;;3.63;;
30181;SDS011;16990;49.056;9.240;2022-08-25T00:41:40;4.20;;;3.25;;
30181;SDS011;16990;49.056;9.240;2022-08-25T00:44:29;7.45;;;3.60;;
30181;SDS011;16990;49.056;9.240;2022-08-25T00:47:19;7.57;;;3.95;;
30181;SDS011;16990;49.056;9.240;2022-08-25T00:50:07;5.88;;;3.85;;
30181;SDS011;16990;49.056;9.240;2022-08-25T00:52:55;4.82;;;3.47;;
30181;SDS011;16990;49.056;9.240;2022-08-25T00:55:46;8.02;;;3.63;;
30181;SDS011;16990;49.056;9.240;2022-08-25T00:58:33;4.25;;;3.30;;
30181;SDS011;16990;49.056;9.240;2022-08-25T01:01:22;6.22;;;3.65;;
30181;SDS011;16990;49.056;9.240;2022-08-25T01:04:09;4.97;;;3.47;;
30181;SDS011;16990;49.056;9.240;2022-08-25T01:06:56;4.00;;;3.50;;
30181;SDS011;16990;49.056;9.240;2022-08-25T01:09:46;5.28;;;4.07;;
30181;SDS011;16990;49.056;9.240;2022-08-25T01:12:35;5.25;;;4.10;;
30181;SDS011;16990;49.056;9.240;2022-08-25T01:15:23;11.48;;;3.63;;
30181;SDS011;16990;49.056;9.240;2022-08-25T01:18:11;6.90;;;3.70;;
30181;SDS011;16990;49.056;9.240;2022-08-25T01:21:00;6.95;;;4.10;;
30181;SDS011;16990;49.056;9.240;2022-08-25T01:23:47;4.63;;;3.60;;
30181;SDS011;16990;49.056;9.240;2022-08-25T01:26:37;5.18;;;3.70;;
30181;SDS011;16990;49.056;9.240;2022-08-25T01:29:24;5.63;;;4.05;;
30181;SDS011;16990;49.056;9.240;2022-08-25T01:32:11;4.35;;;3.42;;
30181;SDS011;16990;49.056;9.240;2022-08-25T01:34:59;6.40;;;3.78;;
30181;SDS011;16990;49.056;9.240;2022-08-25T01:37:47;6.47;;;3.42;;
30181;SDS011;16990;49.056;9.240;2022-08-25T01:40:35;6.40;;;4.55;;
30181;SDS011;16990;49.056;9.240;2022-08-25T01:43:25;6.18;;;4.22;;
30181;SDS011;16990;49.056;9.240;2022-08-25T01:46:21;5.88;;;3.95;;
30181;SDS011;16990;49.056;9.240;2022-08-25T01:49:08;8.00;;;4.47;;
30181;SDS011;16990;49.056;9.240;2022-08-25T01:51:56;4.87;;;3.83;;
30181;SDS011;16990;49.056;9.240;2022-08-25T01:54:47;5.20;;;3.97;;
30181;SDS011;16990;49.056;9.240;2022-08-25T01:57:34;4.65;;;3.90;;
30181;SDS011;16990;49.056;9.240;2022-08-25T02:00:21;6.53;;;4.05;;
30181;SDS011;16990;49.056;9.240;2022-08-25T02:03:09;6.70;;;4.25;;
30181;SDS011;16990;49.056;9.240;2022-08-25T02:05:56;5.68;;;4.25;;
30181;SDS011;16990;49.056;9.240;2022-08-25T02:08:44;5.82;;;3.70;;
30181;SDS011;16990;49.056;9.240;2022-08-25T02:11:32;6.80;;;4.75;;
30181;SDS011;16990;49.056;9.240;2022-08-25T02:14:23;5.82;;;4.10;;
30181;SDS011;16990;49.056;9.240;2022-08-25T02:17:10;7.30;;;4.40;;
30181;SDS011;16990;49.056;9.240;2022-08-25T02:19:57;5.18;;;4.43;;
30181;SDS011;16990;49.056;9.240;2022-08-25T02:22:44;5.55;;;4.38;;
30181;SDS011;16990;49.056;9.240;2022-08-25T02:25:31;6.35;;;5.32;;
30181;SDS011;16990;49.056;9.240;2022-08-25T02:28:20;6.68;;;5.32;;
30181;SDS011;16990;49.056;9.240;2022-08-25T02:31:06;9.50;;;5.57;;
30181;SDS011;16990;49.056;9.240;2022-08-25T02:34:00;7.97;;;6.13;;
30181;SDS011;16990;49.056;9.240;2022-08-25T02:36:48;10.20;;;6.55;;
30181;SDS011;16990;49.056;9.240;2022-08-25T02:39:35;11.18;;;6.97;;
30181;SDS011;16990;49.056;9.240;2022-08-25T02:42:22;10.63;;;6.68;;
30181;SDS011;16990;49.056;9.240;2022-08-25T02:45:11;11.82;;;7.13;;
30181;SDS011;16990;49.056;9.240;2022-08-25T02:47:58;11.45;;;6.50;;
30181;SDS011;16990;49.056;9.240;2022-08-25T02:50:45;9.52;;;7.05;;
30181;SDS011;16990;49.056;9.240;2022-08-25T02:53:34;9.23;;;7.03;;
30181;SDS011;16990;49.056;9.240;2022-08-25T02:56:24;9.45;;;7.13;;
30181;SDS011;16990;49.056;9.240;2022-08-25T02:59:11;14.75;;;7.80;;
30181;SDS011;16990;49.056;9.240;2022-08-25T03:01:59;12.25;;;8.88;;
30181;SDS011;16990;49.056;9.240;2022-08-25T03:04:46;22.80;;;11.02;;
30181;SDS011;16990;49.056;9.240;2022-08-25T03:07:33;14.68;;;9.75;;
30181;SDS011;16990;49.056;9.240;2022-08-25T03:10:20;14.43;;;10.05;;
30181;SDS011;16990;49.056;9.240;2022-08-25T03:13:06;15.43;;;10.30;;
30181;SDS011;16990;49.056;9.240;2022-08-25T03:15:53;17.58;;;10.30;;
30181;SDS011;16990;49.056;9.240;2022-08-25T03:18:42;15.45;;;10.25;;
30181;SDS011;16990;49.056;9.240;2022-08-25T03:21:29;14.65;;;10.43;;
30181;SDS011;16990;49.056;9.240;2022-08-25T03:24:17;20.75;;;10.52;;
30181;SDS011;16990;49.056;9.240;2022-08-25T03:27:04;10.93;;;8.68;;
30181;SDS011;16990;49.056;9.240;2022-08-25T03:29:50;19.67;;;8.52;;
30181;SDS011;16990;49.056;9.240;2022-08-25T03:32:37;14.02;;;8.07;;
30181;SDS011;16990;49.056;9.240;2022-08-25T03:35:25;12.73;;;8.07;;
30181;SDS011;16990;49.056;9.240;2022-08-25T03:38:12;11.23;;;7.72;;
30181;SDS011;16990;49.056;9.240;2022-08-25T03:41:01;18.95;;;7.78;;
30181;SDS011;16990;49.056;9.240;2022-08-25T03:43:48;11.73;;;8.10;;
30181;SDS011;16990;49.056;9.240;2022-08-25T03:46:37;14.00;;;9.27;;
30181;SDS011;16990;49.056;9.240;2022-08-25T03:49:25;12.00;;;8.15;;
30181;SDS011;16990;49.056;9.240;2022-08-25T03:52:13;12.10;;;7.90;;
30181;SDS011;16990;49.056;9.240;2022-08-25T03:55:01;13.30;;;7.53;;
30181;SDS011;16990;49.056;9.240;2022-08-25T03:57:50;11.65;;;8.35;;
30181;SDS011;16990;49.056;9.240;2022-08-25T04:00:37;23.45;;;13.00;;
30181;SDS011;16990;49.056;9.240;2022-08-25T04:03:24;23.98;;;15.43;;
30181;SDS011;16990;49.056;9.240;2022-08-25T04:06:11;30.30;;;18.58;;
30181;SDS011;16990;49.056;9.240;2022-08-25T04:09:00;31.15;;;16.67;;
30181;SDS011;16990;49.056;9.240;2022-08-25T04:11:47;30.17;;;14.90;;
30181;SDS011;16990;49.056;9.240;2022-08-25T04:14:34;29.77;;;13.70;;
30181;SDS011;16990;49.056;9.240;2022-08-25T04:17:22;23.48;;;14.10;;
30181;SDS011;16990;49.056;9.240;2022-08-25T04:20:09;23.17;;;13.75;;
30181;SDS011;16990;49.056;9.240;2022-08-25T04:22:57;23.88;;;13.13;;
30181;SDS011;16990;49.056;9.240;2022-08-25T04:25:46;22.80;;;12.63;;
30181;SDS011;16990;49.056;9.240;2022-08-25T04:28:33;20.65;;;12.77;;
30181;SDS011;16990;49.056;9.240;2022-08-25T04:31:20;22.83;;;11.88;;
30181;SDS011;16990;49.056;9.240;2022-08-25T04:34:07;19.35;;;12.10;;
30181;SDS011;16990;49.056;9.240;2022-08-25T04:36:54;20.98;;;10.30;;
30181;SDS011;16990;49.056;9.240;2022-08-25T04:39:41;17.92;;;11.30;;
30181;SDS011;16990;49.056;9.240;2022-08-25T04:42:29;23.27;;;12.32;;
30181;SDS011;16990;49.056;9.240;2022-08-25T04:45:16;22.48;;;10.52;;
30181;SDS011;16990;49.056;9.240;2022-08-25T04:48:03;25.58;;;10.77;;
30181;SDS011;16990;49.056;9.240;2022-08-25T04:50:51;37.42;;;17.98;;
30181;SDS011;16990;49.056;9.240;2022-08-25T04:53:38;39.75;;;19.48;;
30181;SDS011;16990;49.056;9.240;2022-08-25T04:56:26;32.05;;;15.68;;
30181;SDS011;16990;49.056;9.240;2022-08-25T04:59:15;19.88;;;11.10;;
30181;SDS011;16990;49.056;9.240;2022-08-25T05:02:04;21.08;;;10.70;;
30181;SDS011;16990;49.056;9.240;2022-08-25T05:04:51;18.20;;;9.70;;
30181;SDS011;16990;49.056;9.240;2022-08-25T05:07:40;20.88;;;8.30;;
30181;SDS011;16990;49.056;9.240;2022-08-25T05:10:27;16.40;;;8.98;;
30181;SDS011;16990;49.056;9.240;2022-08-25T05:13:14;17.35;;;8.77;;
30181;SDS011;16990;49.056;9.240;2022-08-25T05:16:02;16.42;;;8.68;;
30181;SDS011;16990;49.056;9.240;2022-08-25T05:18:50;18.40;;;9.50;;
30181;SDS011;16990;49.056;9.240;2022-08-25T05:21:37;16.63;;;9.18;;
30181;SDS011;16990;49.056;9.240;2022-08-25T05:24:25;19.88;;;9.35;;
30181;SDS011;16990;49.056;9.240;2022-08-25T05:27:13;22.35;;;10.70;;
30181;SDS011;16990;49.056;9.240;2022-08-25T05:30:00;21.88;;;9.90;;
30181;SDS011;16990;49.056;9.240;2022-08-25T05:32:48;22.55;;;10.23;;
30181;SDS011;16990;49.056;9.240;2022-08-25T05:35:35;20.10;;;9.90;;
30181;SDS011;16990;49.056;9.240;2022-08-25T05:38:23;15.85;;;8.65;;
30181;SDS011;16990;49.056;9.240;2022-08-25T05:41:10;17.00;;;9.52;;
30181;SDS011;16990;49.056;9.240;2022-08-25T05:44:00;20.92;;;9.32;;
30181;SDS011;16990;49.056;9.240;2022-08-25T05:46:47;22.40;;;9.18;;
30181;SDS011;16990;49.056;9.240;2022-08-25T05:49:36;20.63;;;9.55;;
30181;SDS011;16990;49.056;9.240;2022-08-25T05:54:51;30.13;;;10.00;;
30181;SDS011;16990;49.056;9.240;2022-08-25T05:57:38;16.00;;;10.02;;
30181;SDS011;16990;49.056;9.240;2022-08-25T06:00:25;23.33;;;10.57;;
30181;SDS011;16990;49.056;9.240;2022-08-25T06:03:12;17.13;;;10.20;;
30181;SDS011;16990;49.056;9.240;2022-08-25T06:06:05;23.40;;;10.35;;
30181;SDS011;16990;49.056;9.240;2022-08-25T06:08:52;18.15;;;9.93;;
30181;SDS011;16990;49.056;9.240;2022-08-25T06:11:39;17.92;;;10.45;;
30181;SDS011;16990;49.056;9.240;2022-08-25T06:14:27;17.92;;;9.45;;
30181;SDS011;16990;49.056;9.240;2022-08-25T06:17:14;19.00;;;10.23;;
30181;SDS011;16990;49.056;9.240;2022-08-25T06:20:01;17.25;;;10.48;;
30181;SDS011;16990;49.056;9.240;2022-08-25T06:22:51;12.98;;;9.40;;
30181;SDS011;16990;49.056;9.240;2022-08-25T06:25:38;15.32;;;9.68;;
30181;SDS011;16990;49.056;9.240;2022-08-25T06:28:25;14.35;;;8.50;;
30181;SDS011;16990;49.056;9.240;2022-08-25T06:31:13;12.82;;;8.60;;
30181;SDS011;16990;49.056;9.240;2022-08-25T06:34:00;15.90;;;9.10;;
30181;SDS011;16990;49.056;9.240;2022-08-25T06:36:47;18.75;;;9.80;;
30181;SDS011;16990;49.056;9.240;2022-08-25T06:39:36;14.48;;;9.43;;
30181;SDS011;16990;49.056;9.240;2022-08-25T06:42:23;22.23;;;10.00;;
30181;SDS011;16990;49.056;9.240;2022-08-25T06:45:10;25.98;;;9.68;;
30181;SDS011;16990;49.056;9.240;2022-08-25T06:47:57;18.55;;;9.52;;
30181;SDS011;16990;49.056;9.240;2022-08-25T06:50:44;16.45;;;8.50;;
30181;SDS011;16990;49.056;9.240;2022-08-25T06:53:31;13.68;;;9.00;;
30181;SDS011;16990;49.056;9.240;2022-08-25T06:56:20;14.48;;;8.73;;
30181;SDS011;16990;49.056;9.240;2022-08-25T06:59:07;12.82;;;8.18;;
30181;SDS011;16990;49.056;9.240;2022-08-25T07:01:55;11.70;;;7.95;;
30181;SDS011;16990;49.056;9.240;2022-08-25T07:04:42;12.00;;;7.72;;
30181;SDS011;16990;49.056;9.240;2022-08-25T07:07:29;14.48;;;7.70;;
30181;SDS011;16990;49.056;9.240;2022-08-25T07:10:16;10.95;;;8.10;;
30181;SDS011;16990;49.056;9.240;2022-08-25T07:13:04;14.85;;;8.82;;
30181;SDS011;16990;49.056;9.240;2022-08-25T07:15:52;11.73;;;8.00;;
30181;SDS011;16990;49.056;9.240;2022-08-25T07:18:40;9.52;;;7.13;;
30181;SDS011;16990;49.056;9.240;2022-08-25T07:21:28;9.93;;;7.63;;
30181;SDS011;16990;49.056;9.240;2022-08-25T07:24:16;11.75;;;7.25;;
30181;SDS011;16990;49.056;9.240;2022-08-25T07:27:04;9.35;;;7.00;;
30181;SDS011;16990;49.056;9.240;2022-08-25T07:29:52;10.73;;;6.88;;
30181;SDS011;16990;49.056;9.240;2022-08-25T07:32:39;13.55;;;7.82;;
30181;SDS011;16990;49.056;9.240;2022-08-25T07:35:26;13.07;;;7.65;;
30181;SDS011;16990;49.056;9.240;2022-08-25T07:38:12;11.27;;;7.43;;
30181;SDS011;16990;49.056;9.240;2022-08-25T07:41:02;10.70;;;7.38;;
30181;SDS011;16990;49.056;9.240;2022-08-25T07:43:49;8.38;;;6.97;;
30181;SDS011;16990;49.056;9.240;2022-08-25T07:46:38;8.40;;;6.68;;
30181;SDS011;16990;49.056;9.240;2022-08-25T07:49:25;8.15;;;5.88;;
30181;SDS011;16990;49.056;9.240;2022-08-25T07:52:13;7.40;;;5.75;;
30181;SDS011;16990;49.056;9.240;2022-08-25T07:55:00;10.00;;;6.18;;
30181;SDS011;16990;49.056;9.240;2022-08-25T07:57:47;9.32;;;6.32;;
30181;SDS011;16990;49.056;9.240;2022-08-25T08:00:35;13.18;;;6.85;;
30181;SDS011;16990;49.056;9.240;2022-08-25T08:03:25;12.77;;;6.72;;
30181;SDS011;16990;49.056;9.240;2022-08-25T08:06:13;7.85;;;6.10;;
30181;SDS011;16990;49.056;9.240;2022-08-25T08:09:02;10.27;;;6.55;;
30181;SDS011;16990;49.056;9.240;2022-08-25T08:11:49;9.27;;;6.53;;
30181;SDS011;16990;49.056;9.240;2022-08-25T08:14:36;10.70;;;6.72;;
30181;SDS011;16990;49.056;9.240;2022-08-25T08:17:23;8.50;;;6.28;;
30181;SDS011;16990;49.056;9.240;2022-08-25T08:20:11;15.32;;;6.10;;
30181;SDS011;16990;49.056;9.240;2022-08-25T08:22:59;7.07;;;5.43;;
30181;SDS011;16990;49.056;9.240;2022-08-25T08:25:46;10.10;;;6.22;;
30181;SDS011;16990;49.056;9.240;2022-08-25T08:28:33;6.82;;;5.38;;
30181;SDS011;16990;49.056;9.240;2022-08-25T08:31:20;7.28;;;4.97;;
30181;SDS011;16990;49.056;9.240;2022-08-25T08:34:11;9.85;;;5.70;;
30181;SDS011;16990;49.056;9.240;2022-08-25T08:36:59;7.43;;;5.10;;
30181;SDS011;16990;49.056;9.240;2022-08-25T08:39:46;9.25;;;5.38;;
30181;SDS011;16990;49.056;9.240;2022-08-25T08:42:39;9.15;;;5.82;;
30181;SDS011;16990;49.056;9.240;2022-08-25T08:45:37;7.63;;;5.75;;
30181;SDS011;16990;49.056;9.240;2022-08-25T08:48:39;12.30;;;5.20;;
30181;SDS011;16990;49.056;9.240;2022-08-25T08:51:34;7.63;;;5.57;;
30181;SDS011;16990;49.056;9.240;2022-08-25T08:54:33;5.97;;;4.68;;
30181;SDS011;16990;49.056;9.240;2022-08-25T08:57:24;9.32;;;4.95;;
30181;SDS011;16990;49.056;9.240;2022-08-25T09:00:14;9.02;;;4.93;;
30181;SDS011;16990;49.056;9.240;2022-08-25T09:03:03;9.70;;;5.63;;
30181;SDS011;16990;49.056;9.240;2022-08-25T09:05:53;5.70;;;4.40;;
30181;SDS011;16990;49.056;9.240;2022-08-25T09:08:42;7.47;;;5.07;;
30181;SDS011;16990;49.056;9.240;2022-08-25T09:11:33;6.57;;;5.22;;
30181;SDS011;16990;49.056;9.240;2022-08-25T09:14:38;6.30;;;5.00;;
30181;SDS011;16990;49.056;9.240;2022-08-25T09:17:40;6.30;;;4.40;;
30181;SDS011;16990;49.056;9.240;2022-08-25T09:20:45;10.05;;;4.57;;
30181;SDS011;16990;49.056;9.240;2022-08-25T09:23:43;5.43;;;4.25;;
30181;SDS011;16990;49.056;9.240;2022-08-25T09:26:47;6.68;;;4.85;;
30181;SDS011;16990;49.056;9.240;2022-08-25T09:29:43;5.93;;;4.53;;
30181;SDS011;16990;49.056;9.240;2022-08-25T09:32:44;9.88;;;4.90;;
30181;SDS011;16990;49.056;9.240;2022-08-25T09:35:33;5.45;;;4.28;;
30181;SDS011;16990;49.056;9.240;2022-08-25T09:38:25;5.80;;;4.35;;
30181;SDS011;16990;49.056;9.240;2022-08-25T09:41:13;8.25;;;4.13;;
30181;SDS011;16990;49.056;9.240;2022-08-25T09:44:03;12.52;;;4.85;;
30181;SDS011;16990;49.056;9.240;2022-08-25T09:46:55;8.20;;;5.10;;
30181;SDS011;16990;49.056;9.240;2022-08-25T09:49:47;8.23;;;4.43;;
30181;SDS011;16990;49.056;9.240;2022-08-25T09:52:36;9.88;;;4.85;;
30181;SDS011;16990;49.056;9.240;2022-08-25T09:55:28;6.75;;;4.53;;
30181;SDS011;16990;49.056;9.240;2022-08-25T10:01:12;8.25;;;4.20;;
30181;SDS011;16990;49.056;9.240;2022-08-25T10:04:03;3.90;;;3.50;;
30181;SDS011;16990;49.056;9.240;2022-08-25T10:06:51;7.07;;;4.10;;
30181;SDS011;16990;49.056;9.240;2022-08-25T10:09:38;8.23;;;3.97;;
30181;SDS011;16990;49.056;9.240;2022-08-25T10:12:28;9.45;;;4.18;;
30181;SDS011;16990;49.056;9.240;2022-08-25T10:15:19;7.18;;;3.72;;
30181;SDS011;16990;49.056;9.240;2022-08-25T10:18:18;7.07;;;4.10;;
30181;SDS011;16990;49.056;9.240;2022-08-25T10:21:09;5.03;;;4.22;;
30181;SDS011;16990;49.056;9.240;2022-08-25T10:23:57;5.00;;;4.07;;
30181;SDS011;16990;49.056;9.240;2022-08-25T10:26:47;5.40;;;3.88;;
30181;SDS011;16990;49.056;9.240;2022-08-25T10:29:54;7.18;;;4.13;;
30181;SDS011;16990;49.056;9.240;2022-08-25T10:32:53;8.15;;;4.35;;
30181;SDS011;16990;49.056;9.240;2022-08-25T10:35:57;6.07;;;3.80;;
30181;SDS011;16990;49.056;9.240;2022-08-25T10:38:51;6.05;;;4.45;;
30181;SDS011;16990;49.056;9.240;2022-08-25T10:41:44;5.82;;;3.38;;
30181;SDS011;16990;49.056;9.240;2022-08-25T10:44:41;6.22;;;3.65;;
30181;SDS011;16990;49.056;9.240;2022-08-25T10:47:57;5.32;;;4.32;;
30181;SDS011;16990;49.056;9.240;2022-08-25T10:50:59;5.28;;;4.22;;
30181;SDS011;16990;49.056;9.240;2022-08-25T10:53:54;9.77;;;4.53;;
30181;SDS011;16990;49.056;9.240;2022-08-25T10:56:49;6.93;;;5.07;;
30181;SDS011;16990;49.056;9.240;2022-08-25T10:59:46;7.85;;;4.30;;
30181;SDS011;16990;49.056;9.240;2022-08-25T11:02:50;5.10;;;3.95;;
30181;SDS011;16990;49.056;9.240;2022-08-25T11:05:44;6.15;;;4.32;;
30181;SDS011;16990;49.056;9.240;2022-08-25T11:08:36;7.72;;;4.28;;
30181;SDS011;16990;49.056;9.240;2022-08-25T11:11:27;9.13;;;4.80;;
30181;SDS011;16990;49.056;9.240;2022-08-25T11:14:19;6.28;;;4.13;;
30181;SDS011;16990;49.056;9.240;2022-08-25T11:17:11;4.85;;;4.38;;
30181;SDS011;16990;49.056;9.240;2022-08-25T11:20:03;6.75;;;4.57;;
30181;SDS011;16990;49.056;9.240;2022-08-25T11:22:56;6.88;;;3.95;;
30181;SDS011;16990;49.056;9.240;2022-08-25T11:25:56;10.80;;;4.13;;
30181;SDS011;16990;49.056;9.240;2022-08-25T11:28:49;6.68;;;4.40;;
30181;SDS011;16990;49.056;9.240;2022-08-25T11:31:42;6.45;;;3.85;;
30181;SDS011;16990;49.056;9.240;2022-08-25T11:34:37;9.25;;;4.28;;
30181;SDS011;16990;49.056;9.240;2022-08-25T11:37:25;5.07;;;3.83;;
30181;SDS011;16990;49.056;9.240;2022-08-25T11:43:43;8.30;;;3.95;;
30181;SDS011;16990;49.056;9.240;2022-08-25T11:46:43;10.95;;;3.13;;
30181;SDS011;16990;49.056;9.240;2022-08-25T11:49:49;5.35;;;3.40;;
30181;SDS011;16990;49.056;9.240;2022-08-25T11:52:43;6.68;;;3.42;;
30181;SDS011;16990;49.056;9.240;2022-08-25T11:55:45;6.13;;;3.97;;
30181;SDS011;16990;49.056;9.240;2022-08-25T11:58:38;4.80;;;3.40;;
30181;SDS011;16990;49.056;9.240;2022-08-25T12:12:26;7.15;;;3.40;;
30181;SDS011;16990;49.056;9.240;2022-08-25T12:15:19;4.90;;;3.50;;
30181;SDS011;16990;49.056;9.240;2022-08-25T12:18:11;4.97;;;3.58;;
30181;SDS011;16990;49.056;9.240;2022-08-25T12:21:09;6.30;;;4.28;;
30181;SDS011;16990;49.056;9.240;2022-08-25T12:24:10;4.75;;;3.63;;
30181;SDS011;16990;49.056;9.240;2022-08-25T12:26:59;4.93;;;3.20;;
30181;SDS011;16990;49.056;9.240;2022-08-25T12:29:51;4.40;;;3.28;;
30181;SDS011;16990;49.056;9.240;2022-08-25T12:32:49;5.83;;;3.40;;
30181;SDS011;16990;49.056;9.240;2022-08-25T12:35:53;5.38;;;3.85;;
30181;SDS011;16990;49.056;9.240;2022-08-25T12:38:43;6.18;;;3.88;;
30181;SDS011;16990;49.056;9.240;2022-08-25T12:41:33;5.38;;;3.83;;
30181;SDS011;16990;49.056;9.240;2022-08-25T12:44:31;4.32;;;3.80;;
30181;SDS011;16990;49.056;9.240;2022-08-25T12:47:27;4.85;;;3.05;;
30181;SDS011;16990;49.056;9.240;2022-08-25T12:50:34;8.43;;;3.30;;
30181;SDS011;16990;49.056;9.240;2022-08-25T12:53:27;5.03;;;3.58;;
30181;SDS011;16990;49.056;9.240;2022-08-25T12:56:21;6.63;;;3.33;;
30181;SDS011;16990;49.056;9.240;2022-08-25T12:59:14;4.35;;;3.45;;
30181;SDS011;16990;49.056;9.240;2022-08-25T13:08:57;6.85;;;3.45;;
30181;SDS011;16990;49.056;9.240;2022-08-25T13:12:06;4.00;;;3.30;;
30181;SDS011;16990;49.056;9.240;2022-08-25T13:14:58;5.28;;;3.40;;
30181;SDS011;16990;49.056;9.240;2022-08-25T13:17:45;5.45;;;2.70;;
30181;SDS011;16990;49.056;9.240;2022-08-25T13:20:32;5.53;;;2.80;;
30181;SDS011;16990;49.056;9.240;2022-08-25T13:23:24;3.42;;;2.80;;
30181;SDS011;16990;49.056;9.240;2022-08-25T13:26:12;3.65;;;2.80;;
30181;SDS011;16990;49.056;9.240;2022-08-25T13:29:02;5.35;;;3.00;;
30181;SDS011;16990;49.056;9.240;2022-08-25T13:32:00;4.03;;;2.90;;
30181;SDS011;16990;49.056;9.240;2022-08-25T13:34:49;5.68;;;3.28;;
30181;SDS011;16990;49.056;9.240;2022-08-25T13:37:38;4.10;;;2.75;;
30181;SDS011;16990;49.056;9.240;2022-08-25T13:40:27;4.03;;;2.83;;
30181;SDS011;16990;49.056;9.240;2022-08-25T13:43:18;3.38;;;3.08;;
30181;SDS011;16990;49.056;9.240;2022-08-25T13:46:04;4.07;;;2.60;;
30181;SDS011;16990;49.056;9.240;2022-08-25T13:49:00;4.00;;;2.83;;
30181;SDS011;16990;49.056;9.240;2022-08-25T13:51:50;3.40;;;3.10;;
30181;SDS011;16990;49.056;9.240;2022-08-25T13:54:40;4.28;;;3.55;;
30181;SDS011;16990;49.056;9.240;2022-08-25T13:57:30;4.10;;;2.90;;
30181;SDS011;16990;49.056;9.240;2022-08-25T14:00:29;7.03;;;3.17;;
30181;SDS011;16990;49.056;9.240;2022-08-25T14:03:29;7.28;;;4.40;;
30181;SDS011;16990;49.056;9.240;2022-08-25T14:06:19;5.07;;;3.50;;
30181;SDS011;16990;49.056;9.240;2022-08-25T14:09:11;4.80;;;3.00;;
30181;SDS011;16990;49.056;9.240;2022-08-25T14:12:01;5.18;;;2.90;;
30181;SDS011;16990;49.056;9.240;2022-08-25T14:14:57;4.40;;;2.85;;
30181;SDS011;16990;49.056;9.240;2022-08-25T14:17:47;3.33;;;3.00;;
30181;SDS011;16990;49.056;9.240;2022-08-25T14:20:46;4.72;;;2.95;;
30181;SDS011;16990;49.056;9.240;2022-08-25T14:23:36;4.05;;;2.83;;
30181;SDS011;16990;49.056;9.240;2022-08-25T14:26:24;4.68;;;2.92;;
30181;SDS011;16990;49.056;9.240;2022-08-25T14:29:11;7.20;;;3.20;;
30181;SDS011;16990;49.056;9.240;2022-08-25T14:32:00;3.65;;;2.92;;
30181;SDS011;16990;49.056;9.240;2022-08-25T14:34:47;5.93;;;3.30;;
30181;SDS011;16990;49.056;9.240;2022-08-25T14:37:34;3.63;;;2.83;;
30181;SDS011;16990;49.056;9.240;2022-08-25T14:40:21;4.72;;;3.28;;
30181;SDS011;16990;49.056;9.240;2022-08-25T14:43:08;3.58;;;3.10;;
30181;SDS011;16990;49.056;9.240;2022-08-25T14:45:55;3.40;;;2.70;;
30181;SDS011;16990;49.056;9.240;2022-08-25T14:48:44;8.45;;;3.47;;
30181;SDS011;16990;49.056;9.240;2022-08-25T14:51:34;4.47;;;2.95;;
30181;SDS011;16990;49.056;9.240;2022-08-25T14:54:24;3.22;;;2.78;;
30181;SDS011;16990;49.056;9.240;2022-08-25T14:57:12;5.68;;;3.00;;
30181;SDS011;16990;49.056;9.240;2022-08-25T14:59:59;4.70;;;2.78;;
30181;SDS011;16990;49.056;9.240;2022-08-25T15:02:47;4.43;;;2.90;;
30181;SDS011;16990;49.056;9.240;2022-08-25T15:05:37;5.63;;;3.50;;
30181;SDS011;16990;49.056;9.240;2022-08-25T15:08:23;5.63;;;2.97;;
30181;SDS011;16990;49.056;9.240;2022-08-25T15:11:28;5.18;;;3.40;;
30181;SDS011;16990;49.056;9.240;2022-08-25T15:14:17;7.22;;;3.42;;
30181;SDS011;16990;49.056;9.240;2022-08-25T15:17:06;4.75;;;3.25;;
30181;SDS011;16990;49.056;9.240;2022-08-25T15:19:53;4.50;;;3.40;;
30181;SDS011;16990;49.056;9.240;2022-08-25T15:22:42;5.05;;;2.58;;
30181;SDS011;16990;49.056;9.240;2022-08-25T15:25:30;4.65;;;3.22;;
30181;SDS011;16990;49.056;9.240;2022-08-25T15:28:17;4.53;;;2.90;;
30181;SDS011;16990;49.056;9.240;2022-08-25T15:31:04;4.15;;;2.90;;
30181;SDS011;16990;49.056;9.240;2022-08-25T15:33:51;5.47;;;2.92;;
30181;SDS011;16990;49.056;9.240;2022-08-25T15:36:38;3.17;;;2.70;;
30181;SDS011;16990;49.056;9.240;2022-08-25T15:39:26;7.18;;;3.30;;
30181;SDS011;16990;49.056;9.240;2022-08-25T15:42:13;10.25;;;3.00;;
30181;SDS011;16990;49.056;9.240;2022-08-25T15:45:00;7.90;;;2.75;;
30181;SDS011;16990;49.056;9.240;2022-08-25T15:47:47;4.00;;;3.20;;
30181;SDS011;16990;49.056;9.240;2022-08-25T15:50:34;5.95;;;3.00;;
30181;SDS011;16990;49.056;9.240;2022-08-25T15:53:21;6.70;;;3.90;;
30181;SDS011;16990;49.056;9.240;2022-08-25T15:56:11;8.38;;;3.55;;
30181;SDS011;16990;49.056;9.240;2022-08-25T15:59:02;7.43;;;3.33;;
30181;SDS011;16990;49.056;9.240;2022-08-25T16:01:50;3.50;;;2.53;;
30181;SDS011;16990;49.056;9.240;2022-08-25T16:04:38;7.45;;;2.83;;
30181;SDS011;16990;49.056;9.240;2022-08-25T16:07:25;5.35;;;3.65;;
30181;SDS011;16990;49.056;9.240;2022-08-25T16:10:13;4.60;;;3.42;;
30181;SDS011;16990;49.056;9.240;2022-08-25T16:13:01;5.78;;;3.33;;
30181;SDS011;16990;49.056;9.240;2022-08-25T16:15:48;5.55;;;3.28;;
30181;SDS011;16990;49.056;9.240;2022-08-25T16:18:35;7.82;;;2.70;;
30181;SDS011;16990;49.056;9.240;2022-08-25T16:21:23;3.60;;;3.00;;
30181;SDS011;16990;49.056;9.240;2022-08-25T16:24:11;4.30;;;2.80;;
30181;SDS011;16990;49.056;9.240;2022-08-25T16:26:59;6.28;;;3.50;;
30181;SDS011;16990;49.056;9.240;2022-08-25T16:29:50;5.15;;;2.97;;
30181;SDS011;16990;49.056;9.240;2022-08-25T16:32:38;9.90;;;3.05;;
30181;SDS011;16990;49.056;9.240;2022-08-25T16:35:25;5.07;;;2.45;;
30181;SDS011;16990;49.056;9.240;2022-08-25T16:38:12;3.22;;;2.45;;
30181;SDS011;16990;49.056;9.240;2022-08-25T16:40:59;7.07;;;2.72;;
30181;SDS011;16990;49.056;9.240;2022-08-25T16:43:46;4.63;;;2.90;;
30181;SDS011;16990;49.056;9.240;2022-08-25T16:46:34;3.50;;;2.40;;
30181;SDS011;16990;49.056;9.240;2022-08-25T16:49:22;3.78;;;2.60;;
30181;SDS011;16990;49.056;9.240;2022-08-25T16:52:09;7.25;;;2.60;;
30181;SDS011;16990;49.056;9.240;2022-08-25T16:55:10;10.80;;;2.72;;
30181;SDS011;16990;49.056;9.240;2022-08-25T16:58:00;5.43;;;2.38;;
30181;SDS011;16990;49.056;9.240;2022-08-25T17:00:47;4.80;;;2.65;;
30181;SDS011;16990;49.056;9.240;2022-08-25T17:03:35;6.47;;;2.60;;
30181;SDS011;16990;49.056;9.240;2022-08-25T17:06:23;4.32;;;2.70;;
30181;SDS011;16990;49.056;9.240;2022-08-25T17:09:12;5.70;;;2.40;;
30181;SDS011;16990;49.056;9.240;2022-08-25T17:11:59;3.65;;;2.53;;
30181;SDS011;16990;49.056;9.240;2022-08-25T17:14:46;4.57;;;2.75;;
30181;SDS011;16990;49.056;9.240;2022-08-25T17:17:33;5.28;;;2.90;;
30181;SDS011;16990;49.056;9.240;2022-08-25T17:20:22;6.22;;;2.22;;
30181;SDS011;16990;49.056;9.240;2022-08-25T17:23:09;5.10;;;2.50;;